Time;durP1;ratioP1;P1;durP2;ratioP2;P2;SDS_P1;SDS_P2;PMS_P1;PMS_P2;Temp;Humidity;BMP_temperature;BMP_pressure;BME280_temperature;BME280_humidity;BME280_pressure;Samples;Min_cycle;Max_cycle;Signal;HPM_P1;HPM_P2
2022/09/17 00:01:00;;;;;;;2.10;1.47;;;7.40;99.90;;;;;;5038296;23;20288;-69
2022/09/17 00:03:01;;;;;;;2.50;1.70;;;7.40;99.90;;;;;;5067181;23;20151;-68
2022/09/17 00:05:02;;;;;;;2.23;1.53;;;7.20;99.90;;;;;;5067299;23;20409;-69
2022/09/17 00:07:03;;;;;;;1.70;1.40;;;7.20;99.90;;;;;;5067066;23;20235;-69
2022/09/17 00:09:05;;;;;;;2.07;1.47;;;7.20;99.90;;;;;;5067027;23;20475;-69
2022/09/17 00:11:19;;;;;;;2.13;1.83;;;7.20;99.90;;;;;;5066258;23;20237;-68
2022/09/17 00:13:20;;;;;;;1.90;1.80;;;7.10;99.90;;;;;;5067101;23;20839;-69
2022/09/17 00:15:21;;;;;;;1.80;1.53;;;7.10;99.90;;;;;;5067002;23;20402;-68
2022/09/17 00:17:21;;;;;;;4.40;2.20;;;7.20;99.90;;;;;;5066806;23;20604;-69
2022/09/17 00:19:24;;;;;;;2.77;2.17;;;7.20;99.90;;;;;;5067047;23;20237;-69
2022/09/17 00:21:25;;;;;;;2.60;2.00;;;7.20;99.90;;;;;;5040383;23;20223;-68
2022/09/17 00:23:26;;;;;;;3.57;2.00;;;7.20;99.90;;;;;;5067113;23;20391;-69
2022/09/17 00:25:27;;;;;;;4.13;1.63;;;7.10;99.90;;;;;;5066719;23;20496;-69
2022/09/17 00:27:27;;;;;;;2.70;1.70;;;7.00;99.90;;;;;;5066935;23;20194;-68
2022/09/17 00:29:28;;;;;;;2.80;1.60;;;7.00;99.90;;;;;;5067032;23;20249;-68
2022/09/17 00:31:29;;;;;;;3.50;1.90;;;6.90;99.90;;;;;;5066094;23;20659;-69
2022/09/17 00:33:29;;;;;;;3.07;1.73;;;6.90;99.90;;;;;;5066728;23;20174;-69
2022/09/17 00:35:30;;;;;;;3.13;1.77;;;6.90;99.90;;;;;;5066945;23;20394;-69
2022/09/17 00:37:30;;;;;;;2.43;1.93;;;6.90;99.90;;;;;;5066847;23;20514;-69
2022/09/17 00:39:31;;;;;;;1.70;1.60;;;6.80;99.90;;;;;;5066912;23;20167;-69
2022/09/17 00:41:34;;;;;;;2.07;1.73;;;6.90;99.90;;;;;;5066202;23;20646;-68
2022/09/17 00:43:35;;;;;;;4.07;1.73;;;6.90;99.90;;;;;;5040951;23;20549;-69
2022/09/17 00:45:35;;;;;;;1.70;1.60;;;6.90;99.90;;;;;;5066814;23;20398;-69
2022/09/17 00:47:44;;;;;;;6.53;1.70;;;6.90;99.90;;;;;;5066233;23;20158;-69
2022/09/17 00:49:46;;;;;;;2.90;1.87;;;6.80;99.90;;;;;;5066985;23;20146;-69
2022/09/17 00:52:03;;;;;;;1.93;1.70;;;6.80;99.90;;;;;;5066099;23;20771;-69
2022/09/17 00:54:07;;;;;;;4.83;1.80;;;6.80;99.90;;;;;;5066629;23;20394;-68
2022/09/17 00:56:16;;;;;;;3.27;1.93;;;6.70;99.90;;;;;;5040915;23;20403;-68
2022/09/17 00:58:19;;;;;;;1.87;1.70;;;6.70;99.90;;;;;;5066862;23;20374;-68
2022/09/17 01:00:21;;;;;;;6.07;1.90;;;6.70;99.90;;;;;;5065782;23;20911;-68
2022/09/17 01:02:22;;;;;;;3.23;1.83;;;6.80;99.90;;;;;;5066871;23;21012;-68
2022/09/17 01:04:25;;;;;;;3.00;1.97;;;6.80;99.90;;;;;;5066563;23;21114;-68
2022/09/17 01:06:51;;;;;;;2.40;1.90;;;6.70;99.90;;;;;;5066755;23;20382;-68
2022/09/17 01:09:06;;;;;;;4.50;2.00;;;6.70;99.90;;;;;;5066704;23;20484;-68
2022/09/17 01:11:48;;;;;;;4.17;2.30;;;6.70;99.90;;;;;;5065652;23;20418;-68
2022/09/17 01:13:51;;;;;;;7.63;2.03;;;6.80;99.90;;;;;;5011367;23;20456;-68
2022/09/17 01:16:28;;;;;;;2.70;2.23;;;6.80;99.90;;;;;;5066474;23;20456;-68
2022/09/17 01:18:49;;;;;;;3.93;2.37;;;6.80;99.90;;;;;;5066597;23;20918;-68
2022/09/17 01:21:08;;;;;;;2.73;2.43;;;6.90;99.90;;;;;;5065614;23;20433;-68
2022/09/17 01:23:42;;;;;;;3.73;2.30;;;6.90;99.90;;;;;;5066480;23;20393;-68
2022/09/17 01:26:08;;;;;;;3.77;2.40;;;7.10;99.90;;;;;;5066459;23;20413;-68
2022/09/17 01:28:31;;;;;;;4.40;2.23;;;7.10;99.90;;;;;;5066589;23;20154;-68
2022/09/17 01:30:50;;;;;;;3.20;2.10;;;7.10;99.90;;;;;;5065806;23;20407;-68
2022/09/17 01:32:58;;;;;;;3.50;2.23;;;7.10;99.90;;;;;;5066289;23;20731;-68
2022/09/17 01:35:14;;;;;;;2.90;2.60;;;7.00;99.90;;;;;;5066555;23;20418;-68
2022/09/17 01:37:35;;;;;;;4.10;2.30;;;7.00;99.90;;;;;;5066423;23;20474;-68
2022/09/17 01:39:52;;;;;;;3.80;2.97;;;7.00;99.90;;;;;;5066716;23;20409;-68
2022/09/17 01:42:17;;;;;;;3.17;2.87;;;6.90;99.90;;;;;;5065608;23;21013;-68
2022/09/17 01:44:34;;;;;;;3.70;3.30;;;6.80;99.90;;;;;;5066708;23;20370;-69
2022/09/17 01:46:43;;;;;;;3.60;2.97;;;6.80;99.90;;;;;;5040621;23;20399;-68
2022/09/17 01:48:49;;;;;;;3.67;2.87;;;6.70;99.90;;;;;;5066530;23;20467;-68
2022/09/17 01:50:55;;;;;;;3.13;2.80;;;6.70;99.90;;;;;;5066222;23;20414;-68
2022/09/17 01:52:57;;;;;;;3.07;2.77;;;6.70;99.90;;;;;;5066638;23;20429;-69
2022/09/17 01:55:04;;;;;;;2.73;2.53;;;6.80;99.90;;;;;;5066474;23;20394;-68
2022/09/17 01:57:17;;;;;;;3.03;2.60;;;6.80;99.90;;;;;;5066326;23;20385;-68
2022/09/17 01:59:21;;;;;;;3.70;2.83;;;6.80;99.90;;;;;;5066476;23;20840;-69
2022/09/17 02:01:23;;;;;;;2.47;2.20;;;6.70;99.90;;;;;;5065723;23;20476;-68
2022/09/17 02:03:29;;;;;;;4.50;2.67;;;6.80;99.90;;;;;;5066243;23;20382;-69
2022/09/17 02:05:43;;;;;;;2.80;2.50;;;6.70;99.90;;;;;;5066725;23;20366;-69
2022/09/17 02:07:52;;;;;;;3.83;2.83;;;6.80;99.90;;;;;;5066323;23;20474;-68
2022/09/17 02:10:00;;;;;;;2.77;2.50;;;6.80;99.90;;;;;;5066207;23;20885;-69
2022/09/17 02:12:06;;;;;;;5.40;2.90;;;6.90;99.90;;;;;;5065711;23;20791;-69
2022/09/17 02:14:12;;;;;;;15.13;5.77;;;6.90;99.90;;;;;;5066319;23;20368;-69
2022/09/17 02:16:20;;;;;;;3.30;2.53;;;7.00;99.90;;;;;;5066360;23;20405;-68
2022/09/17 02:18:53;;;;;;;3.03;2.73;;;7.00;99.90;;;;;;5066259;23;20836;-68
2022/09/17 02:21:16;;;;;;;4.83;2.47;;;7.00;99.90;;;;;;5065462;23;20525;-68
2022/09/17 02:23:23;;;;;;;3.23;2.90;;;7.00;99.90;;;;;;5066324;23;20400;-68
2022/09/17 02:25:36;;;;;;;4.07;2.90;;;7.00;99.90;;;;;;5066188;23;20406;-68
2022/09/17 02:27:49;;;;;;;3.47;2.70;;;7.00;99.90;;;;;;5066201;23;20462;-69
2022/09/17 02:29:50;;;;;;;5.50;2.83;;;7.10;99.90;;;;;;5066182;23;20433;-69
2022/09/17 02:31:51;;;;;;;3.73;2.70;;;7.20;99.90;;;;;;5065342;23;20421;-68
2022/09/17 02:33:55;;;;;;;3.93;3.07;;;7.30;99.90;;;;;;5035005;23;20187;-69
2022/09/17 02:35:56;;;;;;;4.10;2.60;;;7.30;99.90;;;;;;5041763;23;20183;-68
2022/09/17 02:37:57;;;;;;;4.60;2.63;;;7.20;99.90;;;;;;5042161;23;20478;-68
2022/09/17 02:39:57;;;;;;;2.60;2.40;;;7.20;99.90;;;;;;5040551;23;20179;-68
2022/09/17 02:42:29;;;;;;;2.47;2.27;;;7.20;99.90;;;;;;5041220;23;20201;-69
2022/09/17 02:44:37;;;;;;;3.93;2.40;;;7.10;99.90;;;;;;5042168;23;20152;-68
2022/09/17 02:46:38;;;;;;;4.60;2.60;;;6.90;99.90;;;;;;5042046;23;20458;-68
2022/09/17 02:48:55;;;;;;;2.77;2.20;;;7.00;99.90;;;;;;5043243;23;20929;-68
2022/09/17 02:51:39;;;;;;;2.50;2.17;;;7.00;99.90;;;;;;5042806;23;20183;-68
2022/09/17 02:54:01;;;;;;;2.33;2.00;;;6.90;99.90;;;;;;5020711;23;20403;-69
2022/09/17 02:56:26;;;;;;;2.20;1.97;;;6.90;99.90;;;;;;5041890;23;20399;-68
2022/09/17 02:58:33;;;;;;;2.37;2.00;;;6.90;99.90;;;;;;5043730;23;20455;-68
2022/09/17 03:00:34;;;;;;;2.20;2.00;;;6.80;99.90;;;;;;5041198;23;20550;-68
2022/09/17 03:02:55;;;;;;;4.63;2.33;;;6.80;99.90;;;;;;5042654;23;20393;-68
2022/09/17 03:04:56;;;;;;;4.10;1.87;;;6.90;99.90;;;;;;5043475;23;20375;-68
2022/09/17 03:06:58;;;;;;;1.90;1.67;;;6.90;99.90;;;;;;5043478;23;20384;-68
2022/09/17 03:08:58;;;;;;;3.03;1.70;;;6.90;99.90;;;;;;5043330;23;20447;-69
2022/09/17 03:10:59;;;;;;;3.03;1.67;;;6.80;99.90;;;;;;5042506;23;20414;-68
2022/09/17 03:13:00;;;;;;;1.70;1.60;;;6.90;99.90;;;;;;5043414;23;20179;-69
2022/09/17 03:15:00;;;;;;;2.67;1.63;;;6.80;99.90;;;;;;5043275;23;20176;-68
2022/09/17 03:17:02;;;;;;;4.17;1.60;;;6.80;99.90;;;;;;5043443;23;20233;-68
2022/09/17 03:19:03;;;;;;;2.67;1.80;;;6.80;99.90;;;;;;5043249;23;20191;-69
2022/09/17 03:21:03;;;;;;;3.10;1.40;;;6.80;99.90;;;;;;5041132;23;20942;-68
2022/09/17 03:23:04;;;;;;;4.00;1.70;;;6.70;99.90;;;;;;5043365;23;20159;-68
2022/09/17 03:25:05;;;;;;;3.77;1.60;;;6.80;99.90;;;;;;5043088;23;20159;-69
2022/09/17 03:27:05;;;;;;;1.27;1.17;;;6.80;99.90;;;;;;5043199;23;20159;-68
2022/09/17 03:29:06;;;;;;;2.00;1.33;;;6.80;99.90;;;;;;5043129;23;20159;-69
2022/09/17 03:31:06;;;;;;;1.80;1.47;;;6.80;99.90;;;;;;5042630;23;20258;-68
2022/09/17 03:33:07;;;;;;;3.27;1.70;;;6.70;99.90;;;;;;5049788;23;20174;-68
2022/09/17 03:35:07;;;;;;;3.93;1.67;;;6.70;99.90;;;;;;5067172;23;20171;-68
2022/09/17 03:37:08;;;;;;;2.33;1.53;;;6.80;99.90;;;;;;5067465;23;20170;-68
2022/09/17 03:39:08;;;;;;;2.30;1.63;;;6.80;99.90;;;;;;5067219;23;20233;-69
2022/09/17 03:41:10;;;;;;;2.57;1.67;;;6.90;99.90;;;;;;5066712;23;20550;-68
2022/09/17 03:43:10;;;;;;;2.10;1.47;;;6.90;99.90;;;;;;5067335;23;20164;-69
2022/09/17 03:45:11;;;;;;;4.67;1.30;;;6.90;99.90;;;;;;5067303;23;20975;-69
2022/09/17 03:47:12;;;;;;;3.90;1.70;;;6.80;99.90;;;;;;5067282;23;20600;-69
2022/09/17 03:49:12;;;;;;;1.83;1.30;;;6.70;99.90;;;;;;5067262;23;20159;-68
2022/09/17 03:51:13;;;;;;;3.10;1.50;;;6.70;99.90;;;;;;5066520;23;20269;-70
2022/09/17 03:53:14;;;;;;;1.60;1.30;;;6.70;99.90;;;;;;5041403;23;20288;-68
2022/09/17 03:55:16;;;;;;;1.20;1.10;;;6.80;99.90;;;;;;5067300;23;20201;-69
2022/09/17 03:57:16;;;;;;;1.87;1.33;;;6.90;99.90;;;;;;5067261;23;20395;-68
2022/09/17 03:59:17;;;;;;;2.03;1.70;;;6.80;99.90;;;;;;5067147;23;20705;-68
2022/09/17 04:01:17;;;;;;;2.80;1.60;;;6.80;99.90;;;;;;5066472;23;20194;-69
2022/09/17 04:03:18;;;;;;;2.50;1.70;;;6.80;99.90;;;;;;5067154;23;20161;-69
2022/09/17 04:05:19;;;;;;;2.53;1.60;;;6.60;99.90;;;;;;5066839;23;20242;-68
2022/09/17 04:07:19;;;;;;;1.70;1.60;;;6.60;99.90;;;;;;5067141;23;20507;-69
2022/09/17 04:09:20;;;;;;;3.47;1.40;;;6.60;99.90;;;;;;5067183;23;20190;-68
2022/09/17 04:11:20;;;;;;;2.77;2.27;;;6.50;99.90;;;;;;5066172;23;20190;-69
2022/09/17 04:13:21;;;;;;;3.90;1.80;;;6.50;99.90;;;;;;5041361;23;20233;-69
2022/09/17 04:15:21;;;;;;;2.57;1.60;;;6.60;99.90;;;;;;5067071;23;20200;-69
2022/09/17 04:17:22;;;;;;;4.77;1.90;;;6.60;99.90;;;;;;5067005;23;20173;-68
2022/09/17 04:19:22;;;;;;;3.23;1.77;;;6.60;99.90;;;;;;5067016;23;20197;-68
2022/09/17 04:21:23;;;;;;;3.83;1.77;;;6.70;99.90;;;;;;5066117;23;20186;-68
2022/09/17 04:23:23;;;;;;;1.80;1.60;;;6.60;99.90;;;;;;5066816;23;20307;-69
2022/09/17 04:25:24;;;;;;;3.63;2.00;;;6.60;99.90;;;;;;5067024;23;20159;-69
2022/09/17 04:27:25;;;;;;;4.20;1.90;;;6.60;99.90;;;;;;5067029;23;20169;-68
2022/09/17 04:29:25;;;;;;;3.43;1.87;;;6.70;99.90;;;;;;5066835;23;20159;-69
2022/09/17 04:31:26;;;;;;;3.40;1.70;;;6.60;99.90;;;;;;5066418;23;20186;-69
2022/09/17 04:33:26;;;;;;;3.07;1.60;;;6.50;99.90;;;;;;5066693;23;20181;-68
2022/09/17 04:35:27;;;;;;;3.10;1.70;;;6.60;99.90;;;;;;5066903;23;20163;-69
2022/09/17 04:37:28;;;;;;;2.40;1.80;;;6.60;99.90;;;;;;5066835;23;20510;-69
2022/09/17 04:39:29;;;;;;;3.40;1.60;;;6.60;99.90;;;;;;5067029;23;20167;-69
2022/09/17 04:41:29;;;;;;;1.60;1.40;;;6.60;99.90;;;;;;5066131;23;20635;-69
2022/09/17 04:43:30;;;;;;;3.03;1.93;;;6.70;99.90;;;;;;5066781;23;20213;-69
2022/09/17 04:45:32;;;;;;;5.57;2.00;;;6.60;99.90;;;;;;5066933;23;20540;-69
2022/09/17 04:47:32;;;;;;;2.90;1.77;;;6.70;99.90;;;;;;5066943;23;20166;-69
2022/09/17 04:49:33;;;;;;;2.63;1.80;;;6.60;99.90;;;;;;5066214;23;20470;-69
2022/09/17 04:51:34;;;;;;;2.47;1.90;;;6.70;99.90;;;;;;5065848;23;20192;-68
2022/09/17 04:53:34;;;;;;;3.90;1.60;;;6.70;99.90;;;;;;5066846;23;20269;-68
2022/09/17 04:55:35;;;;;;;4.83;1.77;;;6.70;99.90;;;;;;5066795;23;20163;-69
2022/09/17 04:57:36;;;;;;;4.67;2.00;;;6.70;99.90;;;;;;5066963;23;20197;-68
2022/09/17 04:59:36;;;;;;;1.97;1.70;;;6.70;99.90;;;;;;5066880;23;20162;-69
2022/09/17 05:01:37;;;;;;;2.30;1.60;;;6.70;99.90;;;;;;5065914;23;20433;-69
2022/09/17 05:03:38;;;;;;;4.30;1.83;;;6.70;99.90;;;;;;5066749;23;20158;-68
2022/09/17 05:05:38;;;;;;;3.20;1.60;;;6.60;99.90;;;;;;5066792;23;20162;-69
2022/09/17 05:07:40;;;;;;;5.40;2.10;;;6.60;99.90;;;;;;5066806;23;20707;-69
2022/09/17 05:09:40;;;;;;;6.03;2.50;;;6.80;99.90;;;;;;5066753;23;20179;-69
2022/09/17 05:11:41;;;;;;;2.40;2.10;;;6.70;99.90;;;;;;5065717;23;20413;-69
2022/09/17 05:13:41;;;;;;;5.23;2.10;;;6.70;99.90;;;;;;5066594;23;20162;-69
2022/09/17 05:15:42;;;;;;;2.80;2.20;;;6.70;99.90;;;;;;5067015;23;20208;-69
2022/09/17 05:17:43;;;;;;;2.37;2.17;;;6.60;99.90;;;;;;5066663;23;20883;-69
2022/09/17 05:19:43;;;;;;;4.90;2.13;;;6.70;99.90;;;;;;5066630;23;20634;-69
2022/09/17 05:21:44;;;;;;;3.30;2.10;;;6.70;99.90;;;;;;5066040;23;20186;-69
2022/09/17 05:23:45;;;;;;;3.63;2.20;;;6.70;99.90;;;;;;5066719;23;20162;-69
2022/09/17 05:25:45;;;;;;;8.30;2.20;;;6.80;99.90;;;;;;5066494;23;20170;-69
2022/09/17 05:27:46;;;;;;;3.60;2.00;;;6.80;99.90;;;;;;5066635;23;20703;-69
2022/09/17 05:29:46;;;;;;;3.40;2.10;;;6.90;99.90;;;;;;5066544;23;20156;-69
2022/09/17 05:31:47;;;;;;;4.70;2.03;;;6.80;99.90;;;;;;5065602;23;20178;-68
2022/09/17 05:33:47;;;;;;;3.20;2.10;;;6.70;99.90;;;;;;5066319;23;20564;-69
2022/09/17 05:35:48;;;;;;;4.00;2.60;;;6.70;99.90;;;;;;5066486;23;20185;-68
2022/09/17 05:37:48;;;;;;;7.77;2.53;;;6.70;99.90;;;;;;5066487;23;20167;-69
2022/09/17 05:39:49;;;;;;;7.47;2.40;;;6.80;99.90;;;;;;5041287;23;20179;-69
2022/09/17 05:41:51;;;;;;;3.93;2.20;;;7.00;99.90;;;;;;5039935;23;20707;-69
2022/09/17 05:43:52;;;;;;;1.67;1.57;;;6.90;99.90;;;;;;5066338;23;20151;-68
2022/09/17 05:45:53;;;;;;;3.20;2.27;;;6.90;99.90;;;;;;5066521;23;20387;-69
2022/09/17 05:47:58;;;;;;;3.57;2.37;;;6.70;99.90;;;;;;5067120;23;20555;-68
2022/09/17 05:49:59;;;;;;;2.97;2.00;;;6.70;99.90;;;;;;5066311;23;20382;-69
2022/09/17 05:52:00;;;;;;;2.47;2.20;;;6.70;99.90;;;;;;5065903;23;20414;-68
2022/09/17 05:54:01;;;;;;;5.00;2.60;;;6.70;99.90;;;;;;5066584;23;20177;-69
2022/09/17 05:56:01;;;;;;;2.60;1.80;;;6.60;99.90;;;;;;5066511;23;20167;-69
2022/09/17 05:58:17;;;;;;;3.50;1.60;;;6.60;99.90;;;;;;5066532;23;20170;-69
2022/09/17 06:00:17;;;;;;;5.47;2.13;;;6.60;99.90;;;;;;5065361;23;20531;-68
2022/09/17 06:02:18;;;;;;;9.50;1.90;;;6.80;99.90;;;;;;5040582;23;20470;-69
2022/09/17 06:04:18;;;;;;;4.30;1.90;;;6.80;99.90;;;;;;5066367;23;20170;-68
2022/09/17 06:06:19;;;;;;;2.53;1.80;;;6.80;99.90;;;;;;5040585;23;20162;-68
2022/09/17 06:08:20;;;;;;;5.37;1.60;;;6.70;99.90;;;;;;5066396;23;20692;-69
2022/09/17 06:10:21;;;;;;;2.23;1.87;;;6.70;99.90;;;;;;5039700;23;20684;-69
2022/09/17 06:12:22;;;;;;;2.97;1.80;;;6.80;99.90;;;;;;5066637;23;20386;-68
2022/09/17 06:14:22;;;;;;;5.00;1.50;;;6.90;99.90;;;;;;5040589;23;20235;-68
2022/09/17 06:16:23;;;;;;;3.37;1.60;;;6.90;99.90;;;;;;5066393;23;20163;-69
2022/09/17 06:18:24;;;;;;;5.80;2.40;;;7.10;99.90;;;;;;5066604;23;20532;-69
2022/09/17 06:20:24;;;;;;;4.70;1.90;;;7.10;99.90;;;;;;5065190;23;20672;-69
2022/09/17 06:22:25;;;;;;;3.67;2.10;;;7.20;99.90;;;;;;5066573;23;20872;-69
2022/09/17 06:24:25;;;;;;;4.13;1.70;;;7.20;99.90;;;;;;5067936;23;20162;-68
2022/09/17 06:26:26;;;;;;;2.37;1.90;;;7.00;99.90;;;;;;5067880;23;20570;-68
2022/09/17 06:28:27;;;;;;;4.47;1.93;;;7.10;99.90;;;;;;5067864;23;20160;-68
2022/09/17 06:30:28;;;;;;;4.37;1.77;;;7.00;99.90;;;;;;5067193;23;20186;-68
2022/09/17 06:32:28;;;;;;;4.63;1.70;;;7.00;99.90;;;;;;5068090;23;20195;-68
2022/09/17 06:34:29;;;;;;;2.67;1.40;;;6.90;99.90;;;;;;5067652;23;20511;-68
2022/09/17 06:36:29;;;;;;;2.47;1.47;;;6.90;99.90;;;;;;5067719;23;20203;-68
2022/09/17 06:38:32;;;;;;;2.83;1.50;;;6.80;99.90;;;;;;5067824;23;20233;-69
2022/09/17 06:40:33;;;;;;;2.03;1.53;;;7.00;99.90;;;;;;5067030;23;20562;-69
2022/09/17 06:42:34;;;;;;;4.13;2.40;;;7.00;99.90;;;;;;5067901;23;20382;-69
2022/09/17 06:44:34;;;;;;;4.27;1.60;;;7.10;99.90;;;;;;5041905;23;20171;-68
2022/09/17 06:46:35;;;;;;;3.33;2.33;;;7.00;99.90;;;;;;5067659;23;20158;-68
2022/09/17 06:48:37;;;;;;;4.10;2.30;;;7.10;99.90;;;;;;5067666;23;20214;-69
2022/09/17 06:50:37;;;;;;;4.97;2.10;;;7.10;99.90;;;;;;5067007;23;20486;-69
2022/09/17 06:52:38;;;;;;;3.87;1.90;;;7.20;99.90;;;;;;5067606;23;20456;-68
2022/09/17 06:54:38;;;;;;;4.30;1.83;;;7.20;99.90;;;;;;5067645;23;20182;-68
2022/09/17 06:56:39;;;;;;;5.73;2.53;;;7.20;99.90;;;;;;5067538;23;20164;-68
2022/09/17 06:58:43;;;;;;;4.60;2.00;;;7.20;99.90;;;;;;5041648;23;20213;-68
2022/09/17 07:00:43;;;;;;;6.30;2.20;;;7.20;99.90;;;;;;5066730;23;20283;-69
2022/09/17 07:02:55;;;;;;;2.57;1.70;;;7.30;99.90;;;;;;5067476;23;20387;-68
2022/09/17 07:04:55;;;;;;;4.53;1.40;;;7.30;99.90;;;;;;5067351;23;20142;-69
2022/09/17 07:06:56;;;;;;;5.00;1.70;;;7.40;99.90;;;;;;5067443;23;20384;-69
2022/09/17 07:08:57;;;;;;;3.37;2.20;;;7.40;99.90;;;;;;5041541;23;20667;-69
2022/09/17 07:10:58;;;;;;;4.43;1.73;;;7.60;99.90;;;;;;5066835;23;20237;-69
2022/09/17 07:12:58;;;;;;;2.30;1.50;;;7.60;99.90;;;;;;5067482;23;20172;-68
2022/09/17 07:14:59;;;;;;;3.57;1.97;;;7.70;99.90;;;;;;5067376;23;20239;-68
2022/09/17 07:16:59;;;;;;;3.17;1.80;;;7.90;99.90;;;;;;5067545;23;20631;-69
2022/09/17 07:19:03;;;;;;;2.27;1.70;;;8.10;99.90;;;;;;5067393;23;20171;-69
2022/09/17 07:21:05;;;;;;;3.37;1.60;;;8.20;99.90;;;;;;5040542;23;20323;-68
2022/09/17 07:23:06;;;;;;;1.70;1.60;;;8.30;99.90;;;;;;5067381;23;20214;-69
2022/09/17 07:25:07;;;;;;;5.37;1.73;;;8.10;99.90;;;;;;5067457;23;20154;-69
2022/09/17 07:27:07;;;;;;;5.07;1.50;;;8.40;99.90;;;;;;5068146;23;20161;-68
2022/09/17 07:29:08;;;;;;;3.53;1.57;;;8.30;99.90;;;;;;5067614;23;20162;-68
2022/09/17 07:31:10;;;;;;;2.03;1.43;;;8.50;99.90;;;;;;5067112;23;20211;-68
2022/09/17 07:33:11;;;;;;;2.33;1.10;;;8.40;99.90;;;;;;5041594;23;20181;-68
2022/09/17 07:35:11;;;;;;;3.03;1.30;;;8.40;99.90;;;;;;5043495;23;20204;-70
2022/09/17 07:37:12;;;;;;;3.93;1.40;;;8.50;99.90;;;;;;5043389;23;20306;-69
2022/09/17 07:39:12;;;;;;;4.83;1.50;;;8.70;99.90;;;;;;5043388;23;20182;-69
2022/09/17 07:41:16;;;;;;;4.00;1.40;;;8.60;99.90;;;;;;5042951;23;20598;-68
2022/09/17 07:43:16;;;;;;;3.93;1.27;;;8.90;99.90;;;;;;5043413;23;20204;-69
2022/09/17 07:45:17;;;;;;;4.00;1.93;;;8.80;99.90;;;;;;5043373;23;20532;-68
2022/09/17 07:47:18;;;;;;;2.27;1.10;;;8.80;99.90;;;;;;5043870;23;20190;-69
2022/09/17 07:49:19;;;;;;;2.53;1.10;;;8.80;99.90;;;;;;5043454;23;20912;-67
2022/09/17 07:51:25;;;;;;;1.70;1.23;;;8.60;99.90;;;;;;5042566;23;20212;-67
2022/09/17 07:53:26;;;;;;;3.60;1.43;;;8.50;99.90;;;;;;5043457;23;20313;-68
2022/09/17 07:55:26;;;;;;;4.67;1.83;;;8.60;99.90;;;;;;5043260;23;20225;-68
2022/09/17 07:57:27;;;;;;;3.17;1.30;;;8.50;99.90;;;;;;5042968;23;20545;-68
2022/09/17 07:59:27;;;;;;;4.03;1.77;;;8.50;99.90;;;;;;5043049;23;20242;-68
2022/09/17 08:01:30;;;;;;;3.57;2.23;;;8.60;99.90;;;;;;5041941;23;20238;-68
2022/09/17 08:03:31;;;;;;;2.13;1.37;;;8.60;99.90;;;;;;5042857;23;20212;-68
2022/09/17 08:05:31;;;;;;;3.47;1.50;;;8.80;99.90;;;;;;5043054;23;20163;-68
2022/09/17 08:07:32;;;;;;;5.73;1.57;;;9.00;99.90;;;;;;5042810;23;20166;-68
2022/09/17 08:09:32;;;;;;;3.47;1.50;;;9.10;99.90;;;;;;5043288;23;20185;-68
2022/09/17 08:11:33;;;;;;;3.53;1.40;;;9.00;99.90;;;;;;5042302;23;20202;-68
2022/09/17 08:13:34;;;;;;;4.90;1.40;;;8.90;99.90;;;;;;5042487;23;20234;-68
2022/09/17 08:15:34;;;;;;;2.87;1.40;;;8.90;99.90;;;;;;5042573;23;20176;-68
2022/09/17 08:17:36;;;;;;;1.80;1.40;;;9.00;99.90;;;;;;5042640;23;20221;-68
2022/09/17 08:19:37;;;;;;;2.33;1.20;;;9.00;99.90;;;;;;5042812;23;20163;-68
2022/09/17 08:21:38;;;;;;;1.63;1.17;;;8.90;99.90;;;;;;5041958;23;20186;-68
2022/09/17 08:23:40;;;;;;;1.50;1.17;;;8.90;99.90;;;;;;5042939;23;20163;-68
2022/09/17 08:25:41;;;;;;;2.70;1.13;;;9.10;99.90;;;;;;5043023;23;20697;-68
2022/09/17 08:27:41;;;;;;;3.80;1.10;;;9.20;99.90;;;;;;5042790;23;20159;-68
2022/09/17 08:29:42;;;;;;;1.87;0.90;;;9.30;99.90;;;;;;5041049;23;20171;-67
2022/09/17 08:31:43;;;;;;;1.20;1.00;;;9.30;99.90;;;;;;5055240;23;20687;-69
2022/09/17 08:33:44;;;;;;;1.90;1.07;;;9.20;99.90;;;;;;5056101;23;20264;-68
2022/09/17 08:35:52;;;;;;;1.73;0.93;;;9.00;99.90;;;;;;5066371;23;20174;-68
2022/09/17 08:37:56;;;;;;;1.93;1.07;;;9.20;99.90;;;;;;5066440;23;20169;-69
2022/09/17 08:39:57;;;;;;;1.50;1.00;;;9.50;99.90;;;;;;5066284;23;20252;-66
2022/09/17 08:42:18;;;;;;;1.37;1.10;;;9.30;99.90;;;;;;5065854;23;20623;-68
2022/09/17 08:44:31;;;;;;;2.83;1.40;;;9.40;99.90;;;;;;5066384;23;20576;-68
2022/09/17 08:47:09;;;;;;;4.43;1.80;;;9.40;99.90;;;;;;5066090;23;20146;-68
2022/09/17 08:49:38;;;;;;;1.73;1.20;;;9.00;99.90;;;;;;5050280;23;20166;-68
2022/09/17 08:51:53;;;;;;;2.47;1.20;;;9.00;99.90;;;;;;5065318;23;20205;-67
2022/09/17 08:53:57;;;;;;;2.73;1.50;;;9.00;99.90;;;;;;5066327;23;20146;-70
2022/09/17 08:56:04;;;;;;;2.43;1.60;;;8.80;99.90;;;;;;5066156;23;20166;-69
2022/09/17 08:58:38;;;;;;;2.10;1.30;;;8.60;99.90;;;;;;5066039;23;20152;-70
2022/09/17 09:00:43;;;;;;;2.87;1.23;;;8.40;99.90;;;;;;5065446;23;20181;-68
2022/09/17 09:03:12;;;;;;;2.67;1.30;;;8.50;99.90;;;;;;5066142;23;20204;-68
2022/09/17 09:05:21;;;;;;;2.00;1.10;;;8.30;99.90;;;;;;5066067;23;20156;-68
2022/09/17 09:07:27;;;;;;;4.30;1.73;;;8.50;99.90;;;;;;5066021;23;20248;-69
2022/09/17 09:09:34;;;;;;;1.97;1.20;;;8.40;99.90;;;;;;5065995;23;20157;-69
2022/09/17 09:11:35;;;;;;;1.73;1.10;;;8.70;99.90;;;;;;5039714;23;20194;-70
2022/09/17 09:14:12;;;;;;;1.30;1.20;;;8.70;99.90;;;;;;5064340;23;20174;-68
2022/09/17 09:16:20;;;;;;;3.50;1.57;;;8.70;99.90;;;;;;5066074;23;20154;-67
2022/09/17 09:18:27;;;;;;;1.77;1.40;;;8.70;99.90;;;;;;5066196;23;20297;-68
2022/09/17 09:21:15;;;;;;;3.10;1.70;;;8.90;99.90;;;;;;5064973;23;20195;-68
2022/09/17 09:23:31;;;;;;;3.70;1.40;;;8.60;99.90;;;;;;4968146;23;20154;-68
2022/09/17 09:25:42;;;;;;;2.80;1.50;;;8.20;99.90;;;;;;5019802;23;20193;-70
2022/09/17 09:28:03;;;;;;;2.77;1.57;;;8.00;99.90;;;;;;5067830;23;20160;-69
2022/09/17 09:30:12;;;;;;;3.50;1.60;;;8.20;99.90;;;;;;5047258;23;20166;-68
2022/09/17 09:32:31;;;;;;;1.37;1.27;;;8.50;99.90;;;;;;5067911;23;20157;-68
2022/09/17 09:34:33;;;;;;;2.10;1.40;;;8.60;99.90;;;;;;5043625;23;20166;-68
2022/09/17 09:36:37;;;;;;;2.40;1.10;;;8.60;99.90;;;;;;5043238;23;20171;-67
2022/09/17 09:38:45;;;;;;;1.73;1.20;;;8.40;99.90;;;;;;5042422;23;20237;-67
2022/09/17 09:40:50;;;;;;;2.10;1.30;;;8.40;99.90;;;;;;5041508;23;20260;-67
2022/09/17 09:42:54;;;;;;;1.57;1.10;;;8.40;99.90;;;;;;5042485;23;20149;-68
2022/09/17 09:45:01;;;;;;;2.20;1.00;;;8.30;99.90;;;;;;5041901;23;20190;-68
2022/09/17 09:47:25;;;;;;;1.53;1.10;;;8.20;99.90;;;;;;5041646;23;20154;-67
2022/09/17 09:50:27;;;;;;;2.10;0.90;;;8.30;99.90;;;;;;5041378;23;20222;-67
2022/09/17 09:52:42;;;;;;;2.20;0.93;;;8.40;99.90;;;;;;4941197;24;20233;-67
2022/09/17 09:55:01;;;;;;;0.80;0.70;;;8.40;99.90;;;;;;4922272;24;20499;-68
2022/09/17 09:57:19;;;;;;;1.00;0.90;;;8.40;99.90;;;;;;4983407;23;20231;-67
2022/09/17 09:59:19;;;;;;;1.70;1.07;;;8.50;99.90;;;;;;5041739;23;20260;-67
2022/09/17 10:01:21;;;;;;;1.93;1.03;;;8.50;99.90;;;;;;5042670;23;20190;-67
2022/09/17 10:03:31;;;;;;;1.10;1.00;;;8.30;99.90;;;;;;5043525;23;20159;-67
2022/09/17 10:05:31;;;;;;;2.20;0.80;;;8.40;99.90;;;;;;5043611;23;20155;-67
2022/09/17 10:07:43;;;;;;;0.80;0.80;;;8.50;99.90;;;;;;5043782;23;20166;-67
2022/09/17 10:09:45;;;;;;;1.10;1.00;;;8.60;99.90;;;;;;5044041;23;20139;-67
2022/09/17 10:12:08;;;;;;;13.20;2.47;;;8.70;99.90;;;;;;5017604;23;20191;-67
2022/09/17 10:14:24;;;;;;;3.47;1.27;;;8.90;99.90;;;;;;5043981;23;20183;-66
2022/09/17 10:16:28;;;;;;;1.33;0.83;;;8.80;99.90;;;;;;5044413;23;20485;-66
2022/09/17 10:18:28;;;;;;;1.57;0.90;;;8.90;99.90;;;;;;5044072;23;20667;-66
2022/09/17 10:20:29;;;;;;;1.23;1.00;;;9.20;99.90;;;;;;5043237;23;20193;-67
2022/09/17 10:22:35;;;;;;;1.03;0.93;;;9.10;99.90;;;;;;5044240;23;20194;-67
2022/09/17 10:24:37;;;;;;;3.43;1.70;;;9.40;99.90;;;;;;5044338;23;20190;-67
2022/09/17 10:26:38;;;;;;;4.80;2.33;;;9.60;99.90;;;;;;5043815;23;20175;-67
2022/09/17 10:28:52;;;;;;;3.70;1.20;;;9.60;99.90;;;;;;5043914;23;20155;-67
2022/09/17 10:31:03;;;;;;;3.67;1.60;;;10.00;99.90;;;;;;5043348;23;20183;-67
2022/09/17 10:33:23;;;;;;;1.93;1.30;;;10.90;99.90;;;;;;5051085;23;20504;-67
2022/09/17 10:35:26;;;;;;;3.13;1.53;;;11.30;99.10;;;;;;5068756;23;20225;-68
2022/09/17 10:37:34;;;;;;;2.60;1.30;;;11.80;99.30;;;;;;5068416;23;20158;-66
2022/09/17 10:39:38;;;;;;;4.10;1.50;;;12.20;96.60;;;;;;5068678;23;20163;-66
2022/09/17 10:42:02;;;;;;;2.73;1.27;;;12.40;97.60;;;;;;5067395;23;20717;-67
2022/09/17 10:44:17;;;;;;;4.27;1.00;;;12.00;96.30;;;;;;5067726;23;20211;-67
2022/09/17 10:46:27;;;;;;;3.10;1.10;;;11.50;92.10;;;;;;5068316;23;20225;-66
2022/09/17 10:48:36;;;;;;;3.37;1.47;;;11.20;96.60;;;;;;5067725;23;20157;-67
2022/09/17 10:50:37;;;;;;;1.93;1.40;;;11.10;97.40;;;;;;5067251;23;20181;-67
2022/09/17 10:52:42;;;;;;;2.67;1.50;;;10.90;96.40;;;;;;5067215;23;20173;-68
2022/09/17 10:55:01;;;;;;;3.30;1.50;;;10.90;98.40;;;;;;5067615;23;20198;-67
2022/09/17 10:57:05;;;;;;;3.67;1.40;;;11.20;96.50;;;;;;5063091;23;20595;-68
2022/09/17 10:59:37;;;;;;;4.03;1.17;;;11.20;96.40;;;;;;5066112;23;20155;-68
2022/09/17 11:02:01;;;;;;;3.67;1.30;;;11.00;93.50;;;;;;5067521;23;20182;-69